createdAt,value
2017-04-10T00:00:12.061Z,9.29
2017-04-10T00:00:52.456Z,9.31
2017-04-10T00:01:32.840Z,9.3
2017-04-10T00:02:13.252Z,9.3
2017-04-10T00:02:53.643Z,9.27
2017-04-10T00:03:34.698Z,9.26
2017-04-10T00:04:15.110Z,9.22
2017-04-10T00:04:55.549Z,9.27
2017-04-10T00:05:36.457Z,9.24
2017-04-10T00:06:16.914Z,9.22
2017-04-10T00:06:57.313Z,9.19
2017-04-10T00:07:37.741Z,9.16
2017-04-10T00:08:18.127Z,9.15
2017-04-10T00:08:58.507Z,9.16
2017-04-10T00:09:39.812Z,9.15
2017-04-10T00:10:20.206Z,9.19
2017-04-10T00:11:00.594Z,9.21
2017-04-10T00:11:40.987Z,9.15
2017-04-10T00:12:21.409Z,9.13
2017-04-10T00:13:02.634Z,9.11
2017-04-10T00:13:43.083Z,9.19
2017-04-10T00:14:23.484Z,9.12
2017-04-10T00:15:03.926Z,9.15
2017-04-10T00:15:44.287Z,9.19
2017-04-10T04:14:35.072Z,8.36
2017-04-10T04:15:15.470Z,8.35
2017-04-10T04:15:55.893Z,8.28
2017-04-10T04:16:36.346Z,8.31
2017-04-10T04:17:17.590Z,8.39
2017-04-10T04:17:59.771Z,8.36
2017-04-10T04:18:41.061Z,8.36
2017-04-10T04:19:21.457Z,8.28
2017-04-10T04:20:02.655Z,8.39
2017-04-10T04:20:43.046Z,8.41
2017-04-10T04:21:23.484Z,8.36
2017-04-10T04:22:05.643Z,8.39
2017-04-10T04:22:46.040Z,8.39
2017-04-10T04:23:27.273Z,8.46
2017-04-10T04:24:07.692Z,8.45
2017-04-10T04:24:48.707Z,8.42
2017-04-10T04:25:29.699Z,8.42
2017-04-10T04:26:10.156Z,8.34
2017-04-10T04:26:51.181Z,8.38
2017-04-10T04:27:32.101Z,8.41
2017-04-10T04:28:18.035Z,8.41
2017-04-10T04:28:58.457Z,8.45
2017-04-10T04:29:38.859Z,8.38
2017-04-10T04:30:19.308Z,8.44
2017-04-10T04:31:02.125Z,8.41
2017-04-10T04:31:42.529Z,8.42
2017-04-10T04:32:25.708Z,8.49
2017-04-10T04:33:06.148Z,8.42
2017-04-10T04:33:46.555Z,8.41
2017-04-10T04:34:27.594Z,8.5
2017-04-10T04:35:07.983Z,8.46
2017-04-10T04:35:48.638Z,8.49
2017-04-10T10:47:10.778Z,46.56
2017-04-10T10:47:51.758Z,46.31
2017-04-10T10:48:32.173Z,45.97
2017-04-10T10:49:12.611Z,45.54
2017-04-10T10:49:53.061Z,45.37
2017-04-10T10:50:33.547Z,45.04
2017-04-10T10:51:14.591Z,45.1
2017-04-10T10:51:57.938Z,45.05
2017-04-10T10:52:41.150Z,45.17
2017-04-10T10:53:23.353Z,45.52
2017-04-10T10:54:03.939Z,45.74
2017-04-10T10:54:44.441Z,46.04
2017-04-10T10:55:26.129Z,46.15
2017-04-10T10:56:06.465Z,46.21
2017-04-10T10:56:47.918Z,46.08
2017-04-10T10:57:31.695Z,45.83
2017-04-10T10:58:31.298Z,45.78
2017-04-10T10:59:12.124Z,45.56
2017-04-10T10:59:54.627Z,45.43
2017-04-10T11:00:38.985Z,45.33
2017-04-10T11:01:20.325Z,45.43
2017-04-10T11:03:08.650Z,46.09
2017-04-10T11:03:50.502Z,46.49
2017-04-10T11:04:30.931Z,46.58
2017-04-10T11:05:12.116Z,46.58
2017-04-10T11:06:04.271Z,46.46
2017-04-10T11:06:44.681Z,46.28
2017-04-10T11:08:32.496Z,45.89
2017-04-10T11:09:13.486Z,45.86
2017-04-10T14:15:54.405Z,27.45
2017-04-10T14:18:08.709Z,27.41
2017-04-10T14:36:25.670Z,26.24
2017-04-10T14:37:06.126Z,26.18
2017-04-10T14:37:46.583Z,25.98
2017-04-10T14:38:26.996Z,26.06
2017-04-10T14:39:07.420Z,25.99
2017-04-10T14:39:48.708Z,25.91
2017-04-10T14:40:30.013Z,25.74
2017-04-10T16:15:37.274Z,22.83
2017-04-10T16:17:24.933Z,22.84
2017-04-10T16:18:06.366Z,22.74
2017-04-10T16:18:46.764Z,22.76
2017-04-10T16:19:27.233Z,22.74
2017-04-10T16:20:07.622Z,22.7
2017-04-10T16:20:48.038Z,22.63
2017-04-10T16:21:28.646Z,22.61
2017-04-10T16:22:09.079Z,22.46
2017-04-10T16:22:49.436Z,22.46
2017-04-10T16:23:29.981Z,22.55
2017-04-10T16:24:10.509Z,22.43
2017-04-10T16:24:51.005Z,22.34
2017-04-10T16:25:31.597Z,22.28
2017-04-10T16:26:12.093Z,22.25
2017-04-10T16:26:52.553Z,22.16
2017-04-10T16:27:33.214Z,22.14
2017-04-10T16:28:13.620Z,22.06
2017-04-10T16:28:54.106Z,21.96
2017-04-10T16:29:34.615Z,21.92
2017-04-10T16:30:15.105Z,21.91
2017-04-10T16:30:55.549Z,21.75
2017-04-10T16:31:36.138Z,21.72
2017-04-10T16:32:16.956Z,21.66
2017-04-10T16:32:57.723Z,21.48
2017-04-10T16:33:38.204Z,21.59
2017-04-10T16:34:18.685Z,21.51
2017-04-10T16:34:59.357Z,21.51
2017-04-10T16:35:39.952Z,21.38
2017-04-10T16:36:20.433Z,21.41
2017-04-10T16:37:00.954Z,21.37
2017-04-10T16:37:41.357Z,21.23
2017-04-10T16:38:21.800Z,21.25
2017-04-10T16:39:02.296Z,21.2
2017-04-10T16:39:42.661Z,21.17
2017-04-10T16:40:23.100Z,21.15
2017-04-10T16:41:03.506Z,21.08
2017-04-10T16:41:43.957Z,21.01
2017-04-10T16:42:25.188Z,21.01
2017-04-10T16:43:05.577Z,21.01
2017-04-10T16:43:46.018Z,20.86
2017-04-10T16:44:28.971Z,20.85
2017-04-10T16:45:09.412Z,20.9
2017-04-10T16:45:49.879Z,20.78
2017-04-10T16:46:30.275Z,20.71
2017-04-10T16:47:10.684Z,20.73
2017-04-10T16:47:51.110Z,20.8
2017-04-10T16:48:32.081Z,20.83
2017-04-10T16:49:12.519Z,20.71
2017-04-10T16:49:54.668Z,20.68
2017-04-10T16:50:35.134Z,20.73
2017-04-10T16:51:15.572Z,20.63
2017-04-10T16:51:56.656Z,20.68
2017-04-10T16:52:39.779Z,20.63
2017-04-10T16:54:53.067Z,20.49
2017-04-10T16:55:34.378Z,20.39
2017-04-10T16:56:14.820Z,20.32
2017-04-10T16:58:28.744Z,20.19
2017-04-10T16:59:11.763Z,20.18
2017-04-10T16:59:53.144Z,20.08
2017-04-10T17:00:33.631Z,20.12
2017-04-10T17:01:15.008Z,20.1
2017-04-10T17:01:55.577Z,19.99
2017-04-10T17:02:35.961Z,19.87
2017-04-10T17:03:16.448Z,19.9
2017-04-10T17:03:56.918Z,19.75
2017-04-10T17:04:37.201Z,19.78
2017-04-10T17:06:15.340Z,19.78
2017-04-10T17:08:28.946Z,19.57
2017-04-10T17:09:09.376Z,19.49
2017-04-10T17:09:49.920Z,19.59
2017-04-10T17:10:31.206Z,19.53
2017-04-10T17:12:09.574Z,19.45
2017-04-10T17:12:50.013Z,19.3
2017-04-10T17:13:30.457Z,19.24
2017-04-10T17:14:11.522Z,19.22
2017-04-10T17:14:52.032Z,19.26
2017-04-10T17:15:32.551Z,19.15
2017-04-10T17:16:12.963Z,19.16
2017-04-10T17:16:53.397Z,19.15
2017-04-10T17:17:33.757Z,19
2017-04-10T17:18:15.710Z,19
2017-04-10T17:18:57.846Z,19
2017-04-10T17:19:38.950Z,18.88
2017-04-10T17:20:20.168Z,18.86
2017-04-10T17:21:00.622Z,18.73
2017-04-10T17:21:41.923Z,18.79
2017-04-10T17:22:22.312Z,18.7
2017-04-10T17:23:02.729Z,18.61
2017-04-10T17:23:43.179Z,18.6
2017-04-10T17:24:23.597Z,18.66
2017-04-10T17:25:04.672Z,18.58
2017-04-10T17:25:45.927Z,18.57
2017-04-10T17:26:26.351Z,18.57
2017-04-10T17:27:09.682Z,18.45
2017-04-10T17:27:50.851Z,18.41
2017-04-10T17:28:32.115Z,18.45
2017-04-10T17:29:13.353Z,18.42
2017-04-10T17:29:53.742Z,18.41
2017-04-10T17:30:34.147Z,18.42
2017-04-10T17:31:14.587Z,18.33
2017-04-10T17:31:55.843Z,18.34
2017-04-10T17:32:36.310Z,18.3
2017-04-10T17:34:28.448Z,18.16
2017-04-10T17:35:08.881Z,18.26
2017-04-10T17:35:49.311Z,18.26
2017-04-10T17:36:29.709Z,18.06
2017-04-10T17:37:10.157Z,18.02
2017-04-10T17:37:51.363Z,18.09
2017-04-10T17:38:31.762Z,18.05
2017-04-10T17:39:13.016Z,18.06
2017-04-10T17:41:26.452Z,17.91
2017-04-10T17:42:06.903Z,17.86
2017-04-10T17:42:47.351Z,17.84
2017-04-10T17:43:30.649Z,17.84
2017-04-10T17:44:11.106Z,17.84
2017-04-10T17:44:51.558Z,17.86
2017-04-10T17:45:31.946Z,17.79
2017-04-10T17:46:12.405Z,17.78
2017-04-10T17:46:53.538Z,17.73
2017-04-10T17:47:34.011Z,17.71
2017-04-10T17:48:14.880Z,17.65
2017-04-10T17:48:55.948Z,17.71
2017-04-10T17:49:36.358Z,17.68
2017-04-10T17:50:18.689Z,17.69
2017-04-10T17:50:59.054Z,17.53
2017-04-10T17:51:39.494Z,17.56
2017-04-10T17:52:19.880Z,17.59
2017-04-10T17:53:03.126Z,17.57
2017-04-10T17:53:45.310Z,17.5
2017-04-10T17:54:26.412Z,17.46
2017-04-10T17:55:06.792Z,17.49
2017-04-10T17:55:47.233Z,17.46
2017-04-10T17:56:27.685Z,17.37
2017-04-10T17:57:08.172Z,17.35
2017-04-10T17:57:49.576Z,17.27
2017-04-10T17:58:30.115Z,17.34
2017-04-10T17:59:11.457Z,17.19
2017-04-10T17:59:51.977Z,17.24
2017-04-10T18:00:32.402Z,17.3
2017-04-10T18:01:14.455Z,17.22
2017-04-10T18:01:54.974Z,17.2
2017-04-10T18:02:35.391Z,17.24
2017-04-10T18:03:18.597Z,17.16
2017-04-10T18:04:01.979Z,17.23
2017-04-10T18:04:43.147Z,17.19
2017-04-10T18:05:23.646Z,17.16
2017-04-10T18:06:04.263Z,17.13
2017-04-10T18:06:44.580Z,17.13
2017-04-10T18:07:25.551Z,17.16
2017-04-10T18:08:06.180Z,17.09
2017-04-10T18:08:46.692Z,17.04
2017-04-10T18:10:24.330Z,17.01
2017-04-10T18:11:04.754Z,17.01
2017-04-10T18:11:45.141Z,16.89
2017-04-10T18:12:26.373Z,16.97
2017-04-10T18:13:06.809Z,16.86
2017-04-10T18:13:47.202Z,16.97
2017-04-10T18:14:29.216Z,16.86
2017-04-10T18:15:10.410Z,16.86
2017-04-10T18:15:50.917Z,16.79
2017-04-10T18:16:31.991Z,16.74
2017-04-10T18:17:12.422Z,16.69
2017-04-10T18:17:53.433Z,16.69
2017-04-10T18:18:34.377Z,16.62
2017-04-10T18:19:15.548Z,16.65
2017-04-10T18:21:30.971Z,16.51
2017-04-10T18:22:13.012Z,16.51
2017-04-10T18:22:55.981Z,16.54
2017-04-10T18:23:36.447Z,16.46
2017-04-10T18:25:52.283Z,16.24
2017-04-10T18:26:32.699Z,16.24
2017-04-10T18:27:13.873Z,16.08
2017-04-10T18:27:54.371Z,16.02
2017-04-10T18:28:35.973Z,16.06
2017-04-10T18:29:16.402Z,15.98
2017-04-10T18:29:56.715Z,16
2017-04-10T18:30:37.244Z,15.88
2017-04-10T18:31:17.630Z,15.81
2017-04-10T18:31:58.103Z,15.72
2017-04-10T18:32:38.524Z,15.7
2017-04-10T18:33:18.972Z,15.7
2017-04-10T18:35:33.178Z,15.59
2017-04-10T18:36:17.990Z,15.55
2017-04-10T18:36:58.378Z,15.52
2017-04-10T18:37:38.923Z,15.45
2017-04-10T18:38:19.462Z,15.47
2017-04-10T18:40:32.098Z,15.33
2017-04-10T18:41:15.424Z,15.33
2017-04-10T18:43:32.153Z,15.25
2017-04-10T18:44:12.770Z,15.19
2017-04-10T18:44:53.361Z,15.33
2017-04-10T18:45:36.685Z,15.19
2017-04-10T18:46:17.124Z,15.23
2017-04-10T18:46:58.409Z,15.15
2017-04-10T18:47:38.848Z,15.07
2017-04-10T18:48:19.341Z,15.15
2017-04-10T18:49:00.710Z,15.08
2017-04-10T18:49:41.143Z,15.02
2017-04-10T18:50:21.732Z,15.05
2017-04-10T18:51:05.713Z,15.02
2017-04-10T18:51:46.404Z,15
2017-04-10T18:52:26.985Z,14.99
2017-04-10T18:53:07.436Z,14.9
2017-04-10T18:53:49.599Z,14.92
2017-04-10T18:54:29.846Z,14.93
2017-04-10T18:55:10.314Z,14.92
2017-04-10T18:55:51.760Z,14.85
2017-04-10T18:56:33.809Z,14.86
2017-04-10T18:57:14.351Z,14.79
2017-04-10T18:57:54.872Z,14.87
2017-04-10T18:58:35.390Z,14.73
2017-04-10T18:59:15.890Z,14.74
2017-04-10T18:59:56.186Z,14.79
2017-04-10T19:00:36.633Z,14.74
2017-04-10T19:01:17.187Z,14.66
2017-04-10T19:01:57.697Z,14.68
2017-04-10T19:02:38.040Z,14.63
2017-04-10T19:03:19.399Z,14.66
2017-04-10T19:04:00.644Z,14.68
2017-04-10T19:04:41.147Z,14.59
2017-04-10T19:05:21.626Z,14.52
2017-04-10T19:06:02.056Z,14.56
2017-04-10T19:06:42.545Z,14.45
2017-04-10T19:07:23.651Z,14.51
2017-04-10T19:08:04.204Z,14.45
2017-04-10T19:08:46.580Z,14.58
2017-04-10T19:09:26.712Z,14.45
2017-04-10T19:10:07.727Z,14.51
2017-04-10T19:10:49.965Z,14.49
2017-04-10T19:11:31.273Z,14.49
2017-04-10T19:12:11.704Z,14.48
2017-04-10T19:12:52.142Z,14.55
2017-04-10T19:13:32.582Z,14.55
2017-04-10T19:14:13.000Z,14.52
2017-04-10T19:14:54.536Z,14.52
2017-04-10T19:15:35.052Z,14.61
2017-04-10T19:16:15.536Z,14.66
2017-04-10T19:16:55.884Z,14.61
2017-04-10T19:17:38.146Z,14.63
2017-04-10T19:19:31.466Z,14.66
2017-04-10T19:20:12.774Z,14.66
2017-04-10T19:20:54.186Z,14.66
2017-04-10T19:21:34.799Z,14.67
2017-04-10T19:22:15.240Z,14.67
2017-04-10T19:24:09.532Z,14.73
2017-04-10T19:24:50.774Z,14.58
2017-04-10T19:25:31.362Z,14.58
2017-04-10T19:26:13.723Z,14.63
2017-04-10T19:26:54.211Z,14.67
2017-04-10T19:27:34.633Z,14.63
2017-04-10T19:28:15.260Z,14.61
2017-04-10T19:28:55.740Z,14.63
2017-04-10T19:29:36.222Z,14.58
2017-04-10T19:30:18.073Z,14.45
2017-04-10T19:31:00.171Z,14.48
2017-04-10T19:33:00.798Z,14.52
2017-04-10T19:33:41.200Z,14.44
2017-04-10T19:34:21.657Z,14.4
2017-04-10T19:35:02.168Z,14.36
2017-04-10T19:35:42.574Z,14.3
2017-04-10T19:36:24.118Z,14.25
2017-04-10T19:37:05.154Z,14.23
2017-04-10T19:37:46.195Z,14.26
2017-04-10T19:38:26.678Z,14.15
2017-04-10T19:39:08.286Z,14.2
2017-04-10T19:41:21.583Z,14.12
2017-04-10T19:42:02.227Z,14.07
2017-04-10T19:42:43.330Z,14.11
2017-04-10T19:43:23.779Z,14.07
2017-04-10T19:44:04.216Z,14.11
2017-04-10T19:44:44.706Z,14.11
2017-04-10T19:46:40.848Z,14.08
2017-04-10T19:47:23.107Z,14.03
2017-04-10T19:48:05.513Z,14
2017-04-10T19:48:45.895Z,14.04
2017-04-10T19:49:26.341Z,14.01
2017-04-10T19:50:06.804Z,14
2017-04-10T19:50:47.248Z,14.03
2017-04-10T19:51:27.630Z,14.08
2017-04-10T19:52:08.110Z,14.12
2017-04-10T19:52:49.293Z,14.07
2017-04-10T19:53:29.919Z,14.08
2017-04-10T19:54:10.490Z,14.08
2017-04-10T19:54:50.987Z,14.08
2017-04-10T19:55:32.138Z,14.08
2017-04-10T19:56:13.342Z,14.11
2017-04-10T19:56:53.805Z,14.15
2017-04-10T19:57:34.264Z,14.08
2017-04-10T19:58:14.755Z,14.04
2017-04-10T19:58:55.172Z,14.11
2017-04-10T19:59:36.185Z,14.12
2017-04-10T20:00:19.952Z,14.08
2017-04-10T20:01:00.393Z,14.08
2017-04-10T20:01:40.881Z,14.01
2017-04-10T20:02:22.607Z,14.01
2017-04-10T20:03:03.055Z,14.07
2017-04-10T20:03:43.556Z,14.03
2017-04-10T20:04:24.624Z,14.01
2017-04-10T20:05:05.046Z,14.01
2017-04-10T20:05:45.531Z,14
2017-04-10T20:06:27.641Z,13.94
2017-04-10T20:07:08.084Z,13.95
2017-04-10T20:07:48.566Z,14.01
2017-04-10T20:08:30.058Z,13.98
2017-04-10T20:09:11.170Z,13.95
2017-04-10T20:09:52.301Z,14.01
2017-04-10T20:10:32.788Z,13.95
2017-04-10T20:11:13.280Z,13.97
2017-04-10T20:11:56.980Z,13.93
2017-04-10T20:12:37.495Z,13.94
2017-04-10T20:13:18.545Z,13.97
2017-04-10T20:13:58.950Z,13.94
2017-04-10T20:14:39.509Z,13.93
2017-04-10T20:15:20.027Z,13.93
2017-04-10T20:16:02.147Z,13.95
2017-04-10T20:16:42.689Z,13.94
2017-04-10T20:17:23.195Z,13.97
2017-04-10T20:18:04.256Z,14
2017-04-10T20:18:45.642Z,13.83
2017-04-10T20:19:26.074Z,13.83
2017-04-10T20:20:07.428Z,13.86
2017-04-10T20:20:47.940Z,13.93
2017-04-10T20:21:28.353Z,13.95
2017-04-10T20:22:08.826Z,13.89
2017-04-10T20:22:49.289Z,13.83
2017-04-10T20:23:29.700Z,13.83
2017-04-10T20:24:10.965Z,13.83
2017-04-10T20:24:52.038Z,13.82
2017-04-10T20:25:32.646Z,13.83
2017-04-10T20:26:14.054Z,13.85
2017-04-10T20:26:55.814Z,13.85
2017-04-10T20:27:37.092Z,13.75
2017-04-10T20:28:19.124Z,13.68
2017-04-10T20:29:00.541Z,13.71
2017-04-10T20:29:41.020Z,13.7
2017-04-10T20:30:22.536Z,13.73
2017-04-10T20:31:03.829Z,13.7
2017-04-10T20:32:53.644Z,13.67
2017-04-10T20:33:34.036Z,13.64
2017-04-10T20:34:14.706Z,13.62
2017-04-10T20:34:55.124Z,13.54
2017-04-10T20:35:35.921Z,13.55
2017-04-10T20:36:16.534Z,13.57
2017-04-10T20:36:57.255Z,13.54
2017-04-10T20:37:37.752Z,13.49
2017-04-10T20:38:18.184Z,13.4
2017-04-10T20:38:58.631Z,13.43
2017-04-10T20:39:40.974Z,13.3
2017-04-10T20:40:22.141Z,13.33
2017-04-10T20:41:02.549Z,13.17
2017-04-10T20:41:42.950Z,13.09
2017-04-10T20:42:23.361Z,13.06
2017-04-10T20:43:03.822Z,12.99
2017-04-10T20:43:44.372Z,13.02
2017-04-10T20:44:24.832Z,12.91
2017-04-10T20:45:05.845Z,12.91
2017-04-10T20:45:46.337Z,12.81
2017-04-10T20:46:26.754Z,12.75
2017-04-10T20:48:06.379Z,12.66
2017-04-10T20:48:46.883Z,12.61
2017-04-10T20:49:30.054Z,12.66
2017-04-10T20:50:12.198Z,12.62
2017-04-10T20:50:52.667Z,12.54
2017-04-10T20:51:33.094Z,12.5
2017-04-10T20:52:13.649Z,12.5
2017-04-10T20:52:55.897Z,12.4
2017-04-10T20:53:37.062Z,12.47
2017-04-10T20:54:17.510Z,12.39
2017-04-10T20:54:57.885Z,12.35
2017-04-10T20:55:39.208Z,12.39
2017-04-10T20:56:19.828Z,12.47
2017-04-10T20:58:17.657Z,12.37
2017-04-10T20:58:58.061Z,12.51
2017-04-10T21:01:11.821Z,12.68
2017-04-10T21:01:52.225Z,12.62
2017-04-10T21:02:35.994Z,12.66
2017-04-10T21:03:16.450Z,12.73
2017-04-10T21:03:57.660Z,12.63
2017-04-10T21:04:38.066Z,12.62
2017-04-10T21:05:18.729Z,12.61
2017-04-10T21:05:59.964Z,12.66
2017-04-10T21:06:40.403Z,12.65
2017-04-10T21:07:20.804Z,12.63
2017-04-10T21:08:02.951Z,12.61
2017-04-10T21:08:43.516Z,12.66
2017-04-10T21:09:27.665Z,12.5
2017-04-10T21:10:09.581Z,12.54
2017-04-10T21:10:49.950Z,12.51
2017-04-10T21:11:31.309Z,12.45
2017-04-10T21:12:12.645Z,12.36
2017-04-10T21:14:11.195Z,12.25
2017-04-10T21:14:52.287Z,12.21
2017-04-10T21:15:32.700Z,12.18
2017-04-10T21:16:13.583Z,12.21
2017-04-10T21:16:54.023Z,12.14
2017-04-10T21:17:35.074Z,12.05
2017-04-10T21:19:47.905Z,12
2017-04-10T21:20:28.371Z,11.99
2017-04-10T21:21:13.417Z,11.95
2017-04-10T21:21:54.577Z,11.88
2017-04-10T21:22:35.625Z,11.89
2017-04-10T21:23:16.140Z,11.88
2017-04-10T21:23:57.701Z,11.93
2017-04-10T21:24:40.649Z,11.83
2017-04-10T21:26:54.819Z,11.89
2017-04-10T21:27:35.907Z,11.89
2017-04-10T21:28:16.348Z,11.95
2017-04-10T21:28:57.449Z,11.91
2017-04-10T21:29:39.754Z,11.93
2017-04-10T21:30:20.710Z,11.91
2017-04-10T21:31:01.202Z,11.89
2017-04-10T21:31:47.224Z,12
2017-04-10T21:32:27.661Z,12.05
2017-04-10T21:33:08.039Z,12.11
2017-04-10T21:33:49.374Z,12.12
2017-04-10T21:34:31.460Z,12.14
2017-04-10T21:35:11.965Z,12.14
2017-04-10T21:35:55.880Z,12.12
2017-04-10T21:36:37.649Z,12.18
2017-04-10T21:37:21.717Z,12.25
2017-04-10T21:38:07.013Z,12.18
2017-04-10T21:38:49.630Z,12.28
2017-04-10T21:39:36.022Z,12.18
2017-04-10T21:40:19.307Z,12.25
2017-04-10T21:41:01.839Z,12.23
2017-04-10T21:43:02.935Z,12.14
2017-04-10T21:43:48.027Z,12.08
2017-04-10T21:44:30.873Z,12.07
2017-04-10T21:45:13.721Z,12.11
2017-04-10T21:45:54.819Z,12.12
2017-04-10T21:46:36.208Z,12.05
2017-04-10T21:47:17.188Z,12.14
2017-04-10T21:48:00.145Z,12.1
2017-04-10T21:48:41.600Z,12.08
2017-04-10T21:49:24.964Z,12.12
2017-04-10T21:50:08.183Z,12.08
2017-04-10T21:50:48.965Z,12.07
2017-04-10T21:53:10.055Z,12.2
2017-04-10T21:53:53.438Z,12.25
2017-04-10T21:54:35.196Z,12.18
2017-04-10T21:55:18.306Z,12.21
2017-04-10T21:55:59.827Z,12.17
2017-04-10T21:56:40.763Z,12.21
2017-04-10T21:57:23.579Z,12.18
2017-04-10T21:58:06.283Z,12.26
2017-04-10T21:58:46.948Z,12.26
2017-04-10T21:59:38.949Z,12.2
2017-04-10T22:00:20.874Z,12.18
2017-04-10T22:01:01.296Z,12.23
2017-04-10T22:01:41.698Z,12.2
2017-04-10T22:02:22.086Z,12.17
2017-04-10T22:05:37.857Z,12.2
2017-04-10T22:06:18.259Z,12.21
2017-04-10T22:06:59.341Z,12.25
2017-04-10T22:07:39.755Z,12.18
2017-04-10T22:08:20.792Z,12.15
2017-04-10T22:09:01.186Z,12.08
2017-04-10T22:09:41.631Z,12.11
2017-04-10T22:10:22.841Z,12.14
2017-04-10T22:11:03.302Z,12.18
2017-04-10T22:12:56.644Z,12.18
2017-04-10T22:13:37.008Z,12.14
2017-04-10T22:14:18.090Z,12.12
2017-04-10T22:14:58.543Z,12.11
2017-04-10T22:15:38.968Z,12.03
2017-04-10T22:16:19.929Z,12.05
2017-04-10T22:17:01.231Z,12.1
2017-04-10T22:17:41.584Z,12.11
2017-04-10T22:18:22.030Z,12.07
2017-04-10T22:19:02.460Z,12.14
2017-04-10T22:19:43.769Z,12.08
2017-04-10T22:20:24.187Z,12.11
2017-04-10T22:21:06.360Z,12.12
2017-04-10T22:21:46.786Z,12.12
2017-04-10T22:22:27.292Z,12.23
2017-04-10T22:23:08.263Z,12.1
2017-04-10T22:25:07.991Z,12.14
2017-04-10T22:25:49.120Z,12.07
2017-04-10T22:26:31.212Z,12.15
2017-04-10T22:27:12.631Z,12.05
2017-04-10T22:27:53.049Z,12.07
2017-04-10T22:28:34.280Z,12.02
2017-04-10T22:29:14.684Z,12.08
2017-04-10T22:29:55.149Z,12.07
2017-04-10T22:30:35.558Z,11.99
2017-04-10T22:31:16.931Z,11.96
2017-04-10T22:31:57.872Z,11.95
2017-04-10T22:32:38.788Z,11.89
2017-04-10T22:33:19.184Z,11.88
2017-04-10T22:34:01.202Z,11.86
2017-04-10T22:34:42.449Z,11.85
2017-04-10T22:35:24.346Z,11.86
2017-04-10T22:36:07.623Z,11.8
2017-04-10T22:36:48.116Z,11.77
2017-04-10T22:37:31.127Z,11.71
2017-04-10T22:38:12.475Z,11.73
2017-04-10T22:38:53.040Z,11.68
2017-04-10T22:39:33.947Z,11.59
2017-04-10T22:40:16.233Z,11.55
2017-04-10T22:40:56.703Z,11.51
2017-04-10T22:41:38.227Z,11.45
2017-04-10T22:42:21.458Z,11.38
2017-04-10T22:43:03.637Z,11.33
2017-04-10T22:43:44.063Z,11.25
2017-04-10T22:44:24.465Z,11.18
2017-04-10T22:45:04.969Z,11.13
2017-04-10T22:45:45.368Z,11.08
2017-04-10T22:46:25.791Z,10.86
2017-04-10T22:47:06.339Z,10.84
2017-04-10T22:47:46.613Z,10.72
2017-04-10T22:48:27.058Z,10.69
2017-04-10T22:49:07.489Z,10.58
2017-04-10T22:49:47.941Z,10.51
2017-04-10T22:50:28.363Z,10.46
2017-04-10T22:51:08.753Z,10.43
2017-04-10T22:51:49.224Z,10.42
2017-04-10T22:52:31.427Z,10.25
2017-04-10T22:53:11.839Z,10.39
2017-04-10T22:53:53.794Z,10.17
2017-04-10T22:54:34.220Z,10.17
2017-04-10T22:55:14.704Z,10.05
2017-04-10T22:55:58.624Z,10.02
2017-04-10T22:56:39.648Z,9.99
2017-04-10T22:57:21.696Z,9.94
2017-04-10T22:58:04.641Z,9.87
2017-04-10T22:58:45.955Z,9.82
2017-04-10T22:59:26.371Z,9.77
2017-04-10T23:00:06.769Z,9.74
2017-04-10T23:01:54.689Z,9.58
2017-04-10T23:02:35.123Z,9.59
2017-04-10T23:03:15.541Z,9.49
2017-04-10T23:03:55.952Z,9.47
2017-04-10T23:04:37.062Z,9.34
2017-04-10T23:05:17.506Z,9.4
2017-04-10T23:07:07.326Z,9.13
2017-04-10T23:07:47.730Z,8.97
2017-04-10T23:08:28.996Z,8.92
2017-04-10T23:09:09.414Z,8.82
2017-04-10T23:11:09.173Z,8.74
2017-04-10T23:11:49.602Z,8.74
2017-04-10T23:12:30.044Z,8.57
2017-04-10T23:13:11.025Z,8.59
2017-04-10T23:13:51.472Z,8.53
2017-04-10T23:14:33.264Z,8.6
2017-04-10T23:15:14.667Z,8.54
2017-04-10T23:15:55.088Z,8.52
2017-04-10T23:16:36.180Z,8.57
2017-04-10T23:17:16.590Z,8.46
2017-04-10T23:17:57.908Z,8.49
2017-04-10T23:18:38.335Z,8.49
2017-04-10T23:19:18.775Z,8.45
2017-04-10T23:19:59.213Z,8.49
2017-04-10T23:20:39.642Z,8.39
2017-04-10T23:21:20.040Z,8.38
2017-04-10T23:22:00.481Z,8.42
2017-04-10T23:22:40.866Z,8.32
2017-04-10T23:24:53.724Z,8.35
2017-04-10T23:25:34.117Z,8.26
2017-04-10T23:26:14.546Z,8.24
2017-04-10T23:26:54.977Z,8.17
2017-04-10T23:27:35.387Z,8.13
2017-04-10T23:28:15.813Z,8.06
2017-04-10T23:28:56.209Z,7.96
2017-04-10T23:29:36.605Z,7.9
2017-04-10T23:30:17.047Z,7.85
2017-04-10T23:30:57.457Z,7.74
2017-04-10T23:31:37.868Z,7.77
2017-04-10T23:32:18.280Z,7.67
2017-04-10T23:32:58.689Z,7.67
2017-04-10T23:33:39.127Z,7.62
2017-04-10T23:34:19.561Z,7.64
2017-04-10T23:35:01.944Z,7.53
2017-04-10T23:35:42.336Z,7.61
2017-04-10T23:36:22.799Z,7.62
2017-04-10T23:37:03.201Z,7.58
2017-04-10T23:37:43.626Z,7.59
2017-04-10T23:38:24.017Z,7.46
2017-04-10T23:39:04.420Z,7.47
2017-04-10T23:39:44.839Z,7.53
2017-04-10T23:40:25.255Z,7.46
2017-04-10T23:41:05.650Z,7.48
2017-04-10T23:42:53.463Z,7.5
2017-04-10T23:43:33.892Z,7.4
2017-04-10T23:44:14.347Z,7.44
2017-04-10T23:44:54.768Z,7.4
2017-04-10T23:45:35.181Z,7.36
2017-04-10T23:46:15.577Z,7.32
2017-04-10T23:46:56.642Z,7.29
2017-04-10T23:48:34.197Z,7.25
2017-04-10T23:49:14.630Z,7.25
2017-04-10T23:49:55.869Z,7.22
2017-04-10T23:50:37.027Z,7.29
2017-04-10T23:51:18.454Z,7.37
2017-04-10T23:51:58.898Z,7.26
2017-04-10T23:52:39.299Z,7.32
2017-04-10T23:53:19.732Z,7.28
2017-04-10T23:55:34.082Z,7.28
2017-04-10T23:56:14.497Z,7.25
2017-04-10T23:56:54.916Z,7.18
2017-04-10T23:57:35.350Z,7.08
2017-04-10T23:58:16.444Z,7.01
2017-04-10T23:58:57.491Z,7.03
2017-04-10T23:59:37.872Z,7.08
